TDO weather

Ed Carlson Memorial Field South Lewis County Airport
Toledo, Washington, United States

Public forecast

Using degrees Fahrenheit for public forecast. Weather courtesy of forecast.io.

Closest aviation weather report (METAR) to Ed Carlson Memorial Field South Lewis County Airport

Closest report is Chehalis Centralia Airport, 14.0 nm (26.0 km) NNW. Retrieved 2020/05/26 10:35 UTC (0 seconds ago):

KCLS 261035Z AUTO VRB05KT 10SM SCT016 OVC025 13/11 A3012 RMK AO2

Closest aviation forecast (TAF) to Ed Carlson Memorial Field South Lewis County Airport

Closest forecast is Olympia Regional Airport, 29.8 nm (55.2 km) N. Retrieved 2020/05/26 06:10 UTC (4 hours ago):

TAF KOLM 260608Z 2606/2706 24008KT P6SM SCT020 BKN040 BKN080 FM261300 22005KT P6SM OVC020 FM261900 36004KT P6SM OVC050